MUC | München Airways

 METAR UND TAF INFORMATION

METAR FOR EPGD
ADDS - METARS form results

(0538 UTC 24 May 2019)
Data provider http://aviationweather.gov/metar/data/
 
METAR text: EPGD 240530Z 30004KT CAVOK 12/09 Q1014
Conditions at: EPGD (GDANSK/REBIECHOW, PL) observed 0530 UTC 24 May 2019
Temperature: 12.0°C (54°F)
Dewpoint: 9.0°C (48°F) [RH = 82%]
Pressure (altimeter): 29.94 inches Hg (1014.0 mb)
Winds: from the WNW (300 degrees) at 5 MPH (4 knots; 2.1 m/s)
Visibility: 6 or more miles (10+ km)
Ceiling: ceiling and visibility are OK
Clouds: unknown
Weather: no significant weather observed at this time

METAR text: EPGD 240500Z 28006KT CAVOK 10/08 Q1014
Conditions at: EPGD (GDANSK/REBIECHOW, PL) observed 0500 UTC 24 May 2019
Temperature: 10.0°C (50°F)
Dewpoint: 8.0°C (46°F) [RH = 87%]
Pressure (altimeter): 29.94 inches Hg (1014.0 mb)
Winds: from the W (280 degrees) at 7 MPH (6 knots; 3.1 m/s)
Visibility: 6 or more miles (10+ km)
Ceiling: ceiling and visibility are OK
Clouds: unknown
Weather: no significant weather observed at this time

Forecast for: EPGD (GDANSK/REBIECHOW, PL)
Text: TAF EPGD 240530Z 2406/2506 28010KT CAVOK
Forecast period: 0600 to 1500 UTC 24 May 2019
Forecast type: FROM: standard forecast or significant change
Winds: from the W (280 degrees) at 12 MPH (10 knots; 5.1 m/s)
Visibility: 6 or more miles 10+ km)
Ceiling: unknown
Clouds: missing
Weather: NSW  (no significant weather)
Text: BECMG 2415/2418 VRB02KT
Forecast period: 1500 UTC 24 May 2019 to 0000 UTC 25 May 2019
Forecast type: BECOMING: Conditions expected to become as follows by 1800 UTC 24 May 2019
Winds: variable direction winds at 2 MPH (2 knots; 1.0 m/s)
Visibility: 6 or more miles 10+ km)
Ceiling: unknown
Clouds: missing
Weather: NSW  (no significant weather)
Text: BECMG 2500/2502 26010KT
Forecast period: 0000 to 0600 UTC 25 May 2019
Forecast type: BECOMING: Conditions expected to become as follows by 0200 UTC 25 May 2019
Winds: from the W (260 degrees) at 12 MPH (10 knots; 5.1 m/s)
Visibility: 6 or more miles 10+ km)
Ceiling: unknown
Clouds: missing
Weather: NSW  (no significant weather)

 FLUGHAFENKARTE

 RUNWAY INFORMATION
Runway 11 Runway length 9186 ft Runway width 148 ft
Runway elevation 450 ft Runway displaced threshold 0 ft Runway heading 113
Runway 29 Runway length 9186 ft Runway width 148 ft
Runway elevation 489 ft Runway displaced threshold 0 ft Runway heading 293

 AIRPORT FREQUENCIES
Type APP Name GDANSK APP Frequency 127.275 MHZ
Type ATIS Name ATIS Frequency 129.625 MHZ
Type TWR Name GDANSK TWR Frequency 118.1 MHZ

 AIRPORT NEAR NAVIGATION AIDS
Type NDB Name Gdansk Frequency 322 KHZ
Type VOR-DME Name Kartuzy Frequency 113200 KHZ
Type NDB Name Gdansk Frequency 383 KHZ